Skip Navigation LinksHome page > Weather > Current weather Skip Navigation Links

Current Weather

Fua'Amotu, Tonga

For information only: do not use for flight planning or navigation.
Latest weather
Observation time Saturday, August 15, 2020 5:00 AM +13
Local time Saturday, August 15, 2020 5:45 AM +13
Flight conditions Visual Meteorological Conditions
Winds
Wind direction South-Southwest (210°)
Wind speed 16 mph
Visibility 6.2 mi.
Sky condition
Ceiling unlimited
Cloud layer few clouds 1,600 ft.
Temperature 68°F
Dewpoint 61°F
Altimeter 29.88 in.Hg
Derived measurements
Relative humidity 78%
Density altitude 917 ft.
METAR NFTF 141600Z 21014KT 9999 FEW016 20/16 Q1012

Settings

Location code

InnerDrive.Weather 4.0.6770.0 Release CLR 4.0.30319.42000
Copyright ©2018 Inner Drive Technology. All rights reserved. Portions Copyright ©1986-2018 David Braverman.

Find weather

Site navigation


Skip Navigation Links

Place info

Page info

PayPal - The safer, easier way to pay online!

Return home.

Copyright ©2020 Inner Drive Technology. Purveyors of fine, hand-crafted computer software. Page printed 2020-08-14T16:45:45 UTC.